createdAt,value
2023-04-27T00:00:16.058Z,514.00
2023-04-27T00:01:16.097Z,508.00
2023-04-27T00:02:16.242Z,507.00
2023-04-27T00:03:16.418Z,514.00
2023-04-27T00:04:16.371Z,513.00
2023-04-27T00:05:16.290Z,507.00
2023-04-27T00:06:16.214Z,512.00
2023-04-27T00:07:16.104Z,512.00
2023-04-27T00:08:16.097Z,512.00
2023-04-27T00:09:16.470Z,510.00
2023-04-27T00:10:16.125Z,505.00
2023-04-27T00:11:16.181Z,509.00
2023-04-27T00:12:16.143Z,508.00
2023-04-27T00:13:16.138Z,509.00
2023-04-27T00:14:16.130Z,511.00
2023-04-27T00:15:16.212Z,513.00
2023-04-27T00:16:16.200Z,507.00
2023-04-27T00:17:16.242Z,505.00
2023-04-27T00:18:16.245Z,514.00
2023-04-27T00:19:16.295Z,510.00
2023-04-27T00:20:16.187Z,513.00
2023-04-27T00:21:16.166Z,511.00
2023-04-27T00:22:16.244Z,512.00
2023-04-27T00:23:16.200Z,515.00
2023-04-27T00:24:16.281Z,509.00
2023-04-27T00:25:16.227Z,512.00
2023-04-27T00:26:16.234Z,514.00
2023-04-27T00:27:16.266Z,503.00
2023-04-27T00:28:16.216Z,512.00
2023-04-27T00:29:16.208Z,512.00
2023-04-27T00:30:16.204Z,511.00
2023-04-27T00:31:16.282Z,512.00
2023-04-27T00:32:16.241Z,511.00
2023-04-27T00:33:16.237Z,509.00
2023-04-27T00:34:16.203Z,508.00
2023-04-27T00:35:16.209Z,509.00
2023-04-27T00:36:16.245Z,514.00
2023-04-27T00:37:16.297Z,505.00
2023-04-27T00:38:16.284Z,503.00
2023-04-27T00:39:16.394Z,506.00
2023-04-27T00:40:16.307Z,507.00
2023-04-27T00:41:16.302Z,508.00
2023-04-27T00:42:16.296Z,509.00
2023-04-27T00:43:16.294Z,509.00
2023-04-27T00:44:16.287Z,508.00
2023-04-27T00:45:16.277Z,504.00
2023-04-27T00:46:16.321Z,505.00
2023-04-27T00:47:16.294Z,512.00
2023-04-27T00:48:16.278Z,512.00
2023-04-27T00:49:16.287Z,507.00
2023-04-27T00:50:16.278Z,512.00
2023-04-27T00:51:16.287Z,506.00
2023-04-27T00:52:16.283Z,514.00
2023-04-27T00:53:16.276Z,510.00
2023-04-27T00:54:16.273Z,513.00
2023-04-27T00:55:16.298Z,512.00
2023-04-27T00:56:16.423Z,517.00
2023-04-27T00:57:16.291Z,516.00
2023-04-27T00:58:16.307Z,509.00
2023-04-27T00:59:16.326Z,502.00
2023-04-27T01:00:16.423Z,516.00
2023-04-27T01:01:16.359Z,515.00
2023-04-27T01:02:16.414Z,514.00
2023-04-27T01:03:16.549Z,515.00
2023-04-27T01:04:16.472Z,508.00
2023-04-27T01:05:16.382Z,515.00
2023-04-27T01:06:16.360Z,509.00
2023-04-27T01:07:16.363Z,513.00
2023-04-27T01:08:16.385Z,508.00
2023-04-27T01:09:16.379Z,512.00
2023-04-27T01:10:16.374Z,509.00
2023-04-27T01:11:16.341Z,513.00
2023-04-27T01:12:16.392Z,515.00
2023-04-27T01:13:16.403Z,516.00
2023-04-27T01:14:16.453Z,513.00
2023-04-27T01:15:16.571Z,509.00
2023-04-27T01:16:16.443Z,515.00
2023-04-27T01:17:16.367Z,507.00
2023-04-27T01:18:16.378Z,515.00
2023-04-27T01:19:16.552Z,506.00
2023-04-27T01:20:16.367Z,512.00
2023-04-27T01:21:16.347Z,509.00
2023-04-27T01:22:16.393Z,513.00
2023-04-27T01:23:17.577Z,506.00
2023-04-27T01:24:16.364Z,510.00
2023-04-27T01:25:16.429Z,510.00
2023-04-27T01:26:16.399Z,516.00
2023-04-27T01:27:16.345Z,513.00
2023-04-27T01:28:16.352Z,517.00
2023-04-27T01:29:16.361Z,515.00
2023-04-27T01:30:19.548Z,514.00
2023-04-27T01:31:16.382Z,513.00
2023-04-27T01:32:16.325Z,510.00
2023-04-27T01:33:16.332Z,507.00
2023-04-27T01:34:16.324Z,508.00
2023-04-27T01:35:16.315Z,516.00
2023-04-27T01:36:16.307Z,509.00
2023-04-27T01:37:16.309Z,515.00
2023-04-27T01:38:16.290Z,513.00
2023-04-27T01:39:16.302Z,509.00
2023-04-27T01:40:16.359Z,510.00
2023-04-27T01:41:16.320Z,511.00
2023-04-27T01:42:16.318Z,511.00
2023-04-27T01:43:16.287Z,513.00
2023-04-27T01:44:16.260Z,508.00
2023-04-27T01:45:16.256Z,513.00
2023-04-27T01:46:16.252Z,507.00
2023-04-27T01:47:16.238Z,509.00
2023-04-27T01:48:16.275Z,506.00
2023-04-27T01:49:16.542Z,511.00
2023-04-27T01:50:16.216Z,510.00
2023-04-27T01:51:16.244Z,509.00
2023-04-27T01:52:16.235Z,504.00
2023-04-27T01:53:16.190Z,509.00
2023-04-27T01:54:16.187Z,509.00
2023-04-27T01:55:16.191Z,508.00
2023-04-27T01:56:16.195Z,510.00
2023-04-27T01:57:16.170Z,508.00
2023-04-27T01:58:16.193Z,504.00
2023-04-27T01:59:16.218Z,503.00
2023-04-27T02:00:16.231Z,508.00
2023-04-27T02:01:16.162Z,506.00
2023-04-27T02:02:16.175Z,507.00
2023-04-27T02:03:16.244Z,505.00
2023-04-27T02:04:16.423Z,504.00
2023-04-27T02:05:16.148Z,506.00
2023-04-27T02:06:16.092Z,510.00
2023-04-27T02:07:16.085Z,507.00
2023-04-27T02:08:16.102Z,505.00
2023-04-27T02:09:16.226Z,509.00
2023-04-27T02:10:16.105Z,505.00
2023-04-27T02:11:16.081Z,507.00
2023-04-27T02:12:16.111Z,509.00
2023-04-27T02:13:16.037Z,508.00
2023-04-27T02:14:16.106Z,506.00
2023-04-27T02:15:16.090Z,508.00
2023-04-27T02:16:16.031Z,507.00
2023-04-27T02:17:15.997Z,514.00
2023-04-27T02:18:16.039Z,509.00
2023-04-27T02:19:16.326Z,515.00
2023-04-27T02:20:16.007Z,511.00
2023-04-27T02:21:15.981Z,526.00
2023-04-27T02:22:15.983Z,520.00
2023-04-27T02:23:15.960Z,510.00
2023-04-27T02:24:16.089Z,513.00
2023-04-27T02:25:15.954Z,511.00
2023-04-27T02:26:15.941Z,510.00
2023-04-27T02:27:15.924Z,510.00
2023-04-27T02:28:15.963Z,512.00
2023-04-27T02:29:16.077Z,506.00
2023-04-27T02:30:15.916Z,514.00
2023-04-27T02:31:15.957Z,508.00
2023-04-27T02:32:15.889Z,512.00
2023-04-27T02:33:15.924Z,508.00
2023-04-27T02:34:15.873Z,511.00
2023-04-27T02:35:15.890Z,507.00
2023-04-27T02:36:15.878Z,511.00
2023-04-27T02:37:15.877Z,510.00
2023-04-27T02:38:15.865Z,507.00
2023-04-27T02:39:16.068Z,512.00
2023-04-27T02:40:15.828Z,506.00
2023-04-27T02:41:15.878Z,512.00
2023-04-27T02:42:15.835Z,511.00
2023-04-27T02:43:15.840Z,510.00
2023-04-27T02:44:15.851Z,505.00
2023-04-27T02:45:15.822Z,512.00
2023-04-27T02:46:15.880Z,509.00
2023-04-27T02:47:15.823Z,508.00
2023-04-27T02:48:15.853Z,513.00
2023-04-27T02:49:16.097Z,510.00
2023-04-27T02:50:15.775Z,509.00
2023-04-27T02:51:15.780Z,514.00
2023-04-27T02:52:15.789Z,507.00
2023-04-27T02:53:15.805Z,510.00
2023-04-27T02:54:15.754Z,505.00
2023-04-27T02:55:15.756Z,513.00
2023-04-27T02:56:15.725Z,511.00
2023-04-27T02:57:15.764Z,512.00
2023-04-27T02:58:15.721Z,510.00
2023-04-27T02:59:15.908Z,503.00
2023-04-27T03:00:15.682Z,509.00
2023-04-27T03:01:15.761Z,505.00
2023-04-27T03:02:15.750Z,512.00
2023-04-27T03:03:15.869Z,511.00
2023-04-27T03:04:15.797Z,509.00
2023-04-27T03:05:15.653Z,507.00
2023-04-27T03:06:15.683Z,509.00
2023-04-27T03:07:15.707Z,512.00
2023-04-27T03:09:35.182Z,500.00
2023-04-27T03:11:53.863Z,500.00
2023-04-27T03:12:53.877Z,500.00
2023-04-27T03:13:54.749Z,500.00
2023-04-27T03:14:53.581Z,500.00
2023-04-27T03:15:53.673Z,500.00
2023-04-27T03:16:53.638Z,501.00
2023-04-27T03:17:53.633Z,502.00
2023-04-27T03:18:53.535Z,502.00
2023-04-27T03:19:53.506Z,507.00
2023-04-27T03:20:53.632Z,506.00
2023-04-27T03:21:53.480Z,505.00
2023-04-27T03:22:53.500Z,504.00
2023-04-27T03:23:53.617Z,506.00
2023-04-27T03:24:53.460Z,506.00
2023-04-27T03:25:53.537Z,507.00
2023-04-27T03:26:53.474Z,510.00
2023-04-27T03:27:53.445Z,505.00
2023-04-27T03:28:53.478Z,507.00
2023-04-27T03:29:53.473Z,508.00
2023-04-27T03:30:53.427Z,513.00
2023-04-27T03:31:53.503Z,505.00
2023-04-27T03:32:53.466Z,509.00
2023-04-27T03:33:53.560Z,506.00
2023-04-27T03:34:53.428Z,505.00
2023-04-27T03:35:53.413Z,510.00
2023-04-27T03:36:53.360Z,509.00
2023-04-27T03:37:53.424Z,507.00
2023-04-27T03:38:53.381Z,508.00
2023-04-27T03:39:53.338Z,509.00
2023-04-27T03:40:53.326Z,510.00
2023-04-27T03:41:53.365Z,509.00
2023-04-27T03:42:53.439Z,509.00
2023-04-27T03:43:53.379Z,509.00
2023-04-27T03:44:53.408Z,510.00
2023-04-27T03:45:53.370Z,507.00
2023-04-27T03:46:53.318Z,511.00
2023-04-27T03:47:53.367Z,507.00
2023-04-27T03:48:53.296Z,507.00
2023-04-27T03:49:53.298Z,508.00
2023-04-27T03:50:53.350Z,506.00
2023-04-27T03:51:53.234Z,506.00
2023-04-27T03:52:53.266Z,511.00
2023-04-27T03:53:53.249Z,505.00
2023-04-27T03:54:53.226Z,513.00
2023-04-27T03:55:53.247Z,511.00
2023-04-27T03:56:53.197Z,509.00
2023-04-27T03:57:53.218Z,509.00
2023-04-27T03:58:53.209Z,510.00
2023-04-27T03:59:53.243Z,508.00
2023-04-27T04:00:53.266Z,510.00
2023-04-27T04:01:53.194Z,508.00
2023-04-27T04:02:53.598Z,507.00
2023-04-27T04:03:53.405Z,505.00
2023-04-27T04:04:53.289Z,505.00
2023-04-27T04:05:53.151Z,508.00
2023-04-27T04:06:53.131Z,509.00
2023-04-27T04:07:53.137Z,509.00
2023-04-27T04:08:53.129Z,512.00
2023-04-27T04:09:53.119Z,507.00
2023-04-27T04:10:53.120Z,509.00
2023-04-27T04:11:53.102Z,510.00
2023-04-27T04:12:53.134Z,512.00
2023-04-27T04:13:53.175Z,508.00
2023-04-27T04:14:53.130Z,509.00
2023-04-27T04:15:53.147Z,507.00
2023-04-27T04:16:53.108Z,509.00
2023-04-27T04:17:53.074Z,508.00
2023-04-27T04:18:53.119Z,507.00
2023-04-27T04:19:53.036Z,505.00
2023-04-27T04:20:53.047Z,511.00
2023-04-27T04:21:53.027Z,509.00
2023-04-27T04:22:53.302Z,510.00
2023-04-27T04:23:53.035Z,507.00
2023-04-27T04:24:52.999Z,507.00
2023-04-27T04:25:53.009Z,505.00
2023-04-27T04:26:53.020Z,507.00
2023-04-27T04:27:53.005Z,507.00
2023-04-27T04:28:53.038Z,503.00
2023-04-27T04:29:53.047Z,507.00
2023-04-27T04:30:53.064Z,502.00
2023-04-27T04:31:53.127Z,500.00
2023-04-27T04:32:53.368Z,510.00
2023-04-27T04:33:53.055Z,512.00
2023-04-27T04:34:53.081Z,506.00
2023-04-27T04:35:53.136Z,504.00
2023-04-27T04:36:53.105Z,507.00
2023-04-27T04:37:53.082Z,508.00
2023-04-27T04:38:53.138Z,501.00
2023-04-27T04:39:53.124Z,505.00
2023-04-27T04:40:53.148Z,507.00
2023-04-27T04:41:53.180Z,511.00
2023-04-27T04:42:53.293Z,508.00
2023-04-27T04:43:53.163Z,506.00
2023-04-27T04:44:53.197Z,506.00
2023-04-27T04:45:53.179Z,506.00
2023-04-27T04:46:53.234Z,507.00
2023-04-27T04:47:53.207Z,508.00
2023-04-27T04:48:54.705Z,507.00
2023-04-27T04:49:53.214Z,510.00
2023-04-27T04:50:53.232Z,507.00
2023-04-27T04:51:53.306Z,509.00
2023-04-27T04:52:53.304Z,501.00
2023-04-27T04:53:53.297Z,507.00
2023-04-27T04:54:53.361Z,505.00
2023-04-27T04:55:53.308Z,512.00
2023-04-27T04:56:53.354Z,510.00
2023-04-27T04:57:53.308Z,511.00
2023-04-27T04:58:53.307Z,512.00
2023-04-27T04:59:53.308Z,511.00
2023-04-27T05:00:53.367Z,504.00
2023-04-27T05:01:53.427Z,508.00
2023-04-27T05:02:53.493Z,509.00
2023-04-27T05:03:53.517Z,503.00
2023-04-27T05:04:53.519Z,500.00
2023-04-27T05:05:53.468Z,512.00
2023-04-27T05:06:53.432Z,515.00
2023-04-27T05:07:53.472Z,514.00
2023-04-27T05:08:53.468Z,514.00
2023-04-27T05:09:53.470Z,511.00
2023-04-27T05:10:53.517Z,509.00
2023-04-27T05:11:53.527Z,511.00
2023-04-27T05:12:53.505Z,511.00
2023-04-27T05:13:53.531Z,511.00
2023-04-27T05:14:53.518Z,511.00
2023-04-27T05:15:53.600Z,511.00
2023-04-27T05:16:53.551Z,506.00
2023-04-27T05:17:53.626Z,506.00
2023-04-27T05:18:53.621Z,500.00
2023-04-27T05:19:53.855Z,508.00
2023-04-27T05:20:53.651Z,502.00
2023-04-27T05:21:53.700Z,506.00
2023-04-27T05:22:53.728Z,514.00
2023-04-27T05:23:53.728Z,507.00
2023-04-27T05:24:53.737Z,506.00
2023-04-27T05:25:53.785Z,500.00
2023-04-27T05:26:53.910Z,519.00
2023-04-27T05:27:53.916Z,500.00
2023-04-27T05:28:54.343Z,513.00
2023-04-27T05:29:54.053Z,500.00
2023-04-27T05:30:54.729Z,520.00
2023-04-27T05:31:53.971Z,510.00
2023-04-27T05:32:54.163Z,501.00
2023-04-27T05:33:54.119Z,513.00
2023-04-27T05:34:54.080Z,503.00
2023-04-27T05:35:55.217Z,503.00
2023-04-27T05:36:55.117Z,502.00
2023-04-27T05:37:55.520Z,500.00
2023-04-27T05:39:06.731Z,500.00
2023-04-27T05:39:58.867Z,501.00
2023-04-27T05:42:16.660Z,500.00
2023-04-27T05:44:35.050Z,500.00
2023-04-27T05:45:45.582Z,500.00
2023-04-27T05:47:53.227Z,500.00
2023-04-27T05:48:53.241Z,500.00
2023-04-27T05:49:53.139Z,500.00
2023-04-27T05:52:12.679Z,500.00
2023-04-27T05:53:13.387Z,500.00
2023-04-27T05:56:27.713Z,500.00
2023-04-27T05:58:46.998Z,500.00
2023-04-27T05:59:46.140Z,500.00
2023-04-27T06:00:45.880Z,500.00
2023-04-27T06:01:45.984Z,500.00
2023-04-27T06:02:46.025Z,500.00
2023-04-27T06:03:46.687Z,573.00
2023-04-27T06:04:45.867Z,578.00
2023-04-27T06:05:45.787Z,511.00
2023-04-27T06:06:45.770Z,511.00
2023-04-27T06:07:45.901Z,496.00
2023-04-27T06:08:45.745Z,499.00
2023-04-27T06:09:45.778Z,529.00
2023-04-27T06:10:45.788Z,520.00
2023-04-27T06:11:45.712Z,517.00
2023-04-27T06:12:46.456Z,528.00
2023-04-27T06:13:45.733Z,515.00
2023-04-27T06:14:45.719Z,512.00
2023-04-27T06:15:45.774Z,516.00
2023-04-27T06:17:01.405Z,527.00
2023-04-27T06:18:05.651Z,500.00
2023-04-27T06:19:04.925Z,500.00
2023-04-27T06:20:05.451Z,500.00
2023-04-27T06:21:04.776Z,500.00
2023-04-27T06:22:04.630Z,500.00
2023-04-27T06:23:04.633Z,504.00
2023-04-27T06:24:04.624Z,504.00
2023-04-27T06:25:04.625Z,500.00
2023-04-27T06:26:04.573Z,504.00
2023-04-27T06:27:04.712Z,511.00
2023-04-27T06:28:04.883Z,514.00
2023-04-27T06:29:04.657Z,501.00
2023-04-27T06:30:04.772Z,505.00
2023-04-27T06:31:04.602Z,524.00
2023-04-27T06:32:04.718Z,508.00
2023-04-27T06:33:05.496Z,516.00
2023-04-27T06:34:04.548Z,513.00
2023-04-27T06:35:06.543Z,515.00
2023-04-27T06:36:05.887Z,510.00
2023-04-27T06:37:08.158Z,518.00
2023-04-27T06:38:08.247Z,514.00
2023-04-27T06:39:04.902Z,519.00
2023-04-27T06:40:05.497Z,503.00
2023-04-27T06:41:04.949Z,517.00
2023-04-27T06:42:04.459Z,507.00
2023-04-27T06:43:10.665Z,504.00
2023-04-27T06:44:06.571Z,519.00
2023-04-27T06:45:08.026Z,519.00
2023-04-27T06:46:05.767Z,511.00
2023-04-27T06:47:09.462Z,516.00
2023-04-27T06:48:08.429Z,512.00
2023-04-27T06:49:06.640Z,518.00
2023-04-27T06:50:04.513Z,513.00
2023-04-27T06:51:05.126Z,514.00
2023-04-27T06:52:04.583Z,509.00
2023-04-27T06:53:05.565Z,506.00
2023-04-27T06:54:04.674Z,506.00
2023-04-27T06:55:04.580Z,500.00
2023-04-27T06:56:04.571Z,506.00
2023-04-27T06:57:04.793Z,520.00
2023-04-27T06:58:04.637Z,524.00
2023-04-27T06:59:04.603Z,521.00
2023-04-27T07:00:04.718Z,514.00
2023-04-27T07:01:20.229Z,518.00
2023-04-27T07:02:05.117Z,519.00
2023-04-27T07:03:04.934Z,519.00
2023-04-27T07:04:05.275Z,518.00
2023-04-27T07:05:18.984Z,510.00
2023-04-27T07:06:05.884Z,519.00
2023-04-27T07:09:43.188Z,500.00
2023-04-27T07:10:43.406Z,500.00
2023-04-27T07:13:02.209Z,500.00
2023-04-27T07:14:02.589Z,500.00
2023-04-27T07:15:02.283Z,500.00
2023-04-27T07:16:01.723Z,500.00
2023-04-27T07:19:50.624Z,500.00
2023-04-27T07:20:51.401Z,500.00
2023-04-27T07:21:58.755Z,500.00
2023-04-27T07:22:50.573Z,500.00
2023-04-27T07:23:50.426Z,500.00
2023-04-27T07:24:50.388Z,500.00
2023-04-27T07:25:50.209Z,500.00
2023-04-27T07:26:50.000Z,500.00
2023-04-27T07:27:51.047Z,501.00
2023-04-27T07:28:50.822Z,502.00
2023-04-27T07:29:49.957Z,500.00
2023-04-27T07:30:50.149Z,512.00
2023-04-27T07:31:51.875Z,515.00
2023-04-27T07:32:50.063Z,522.00
2023-04-27T07:33:49.973Z,520.00
2023-04-27T07:34:53.970Z,515.00
2023-04-27T07:35:49.944Z,513.00
2023-04-27T07:36:49.954Z,508.00
2023-04-27T07:37:50.036Z,508.00
2023-04-27T07:38:50.037Z,510.00
2023-04-27T07:39:50.031Z,507.00
2023-04-27T07:40:49.886Z,504.00
2023-04-27T07:41:50.052Z,500.00
2023-04-27T07:42:49.961Z,505.00
2023-04-27T07:43:49.975Z,502.00
2023-04-27T07:44:49.880Z,503.00
2023-04-27T07:45:49.942Z,502.00
2023-04-27T07:46:49.921Z,503.00
2023-04-27T07:47:49.854Z,500.00
2023-04-27T07:48:50.010Z,507.00
2023-04-27T07:51:25.151Z,500.00
2023-04-27T07:52:24.188Z,500.00
2023-04-27T07:53:24.263Z,500.00
2023-04-27T07:54:24.921Z,500.00
2023-04-27T07:55:24.487Z,500.00
2023-04-27T07:56:25.163Z,500.00
2023-04-27T07:57:24.303Z,500.00
2023-04-27T07:58:25.595Z,501.00
2023-04-27T07:59:31.623Z,506.00
2023-04-27T08:01:44.063Z,500.00
2023-04-27T08:02:43.429Z,500.00
2023-04-27T08:03:43.331Z,500.00
2023-04-27T08:04:43.335Z,500.00
2023-04-27T08:05:43.275Z,500.00
2023-04-27T08:06:43.359Z,502.00
2023-04-27T08:07:45.786Z,501.00
2023-04-27T08:08:43.502Z,498.00
2023-04-27T08:09:43.445Z,504.00
2023-04-27T08:10:43.735Z,505.00
2023-04-27T08:11:56.515Z,513.00
2023-04-27T08:12:43.991Z,515.00
2023-04-27T08:13:44.576Z,515.00
2023-04-27T08:14:43.756Z,515.00
2023-04-27T08:15:43.321Z,512.00
2023-04-27T08:19:21.926Z,500.00
2023-04-27T08:20:22.138Z,500.00
2023-04-27T08:21:21.263Z,500.00
2023-04-27T08:22:21.344Z,500.00
2023-04-27T08:23:20.955Z,500.00
2023-04-27T08:24:20.938Z,500.00
2023-04-27T08:25:21.359Z,500.00
2023-04-27T08:26:20.947Z,500.00
2023-04-27T08:27:29.946Z,500.00
2023-04-27T08:28:21.018Z,502.00
2023-04-27T08:29:27.652Z,502.00
2023-04-27T08:30:22.113Z,501.00
2023-04-27T08:31:21.108Z,502.00
2023-04-27T08:33:40.194Z,500.00
2023-04-27T08:34:50.197Z,500.00
2023-04-27T08:35:39.915Z,500.00
2023-04-27T08:36:40.455Z,500.00
2023-04-27T08:40:22.448Z,500.00
2023-04-27T08:41:21.802Z,500.00
2023-04-27T08:42:17.761Z,500.00
2023-04-27T08:43:17.671Z,500.00
2023-04-27T08:44:17.575Z,500.00
2023-04-27T08:45:17.882Z,500.00
2023-04-27T08:46:17.648Z,500.00
2023-04-27T08:47:20.170Z,500.00
2023-04-27T08:48:18.938Z,500.00
2023-04-27T08:49:19.098Z,494.00
2023-04-27T08:50:17.581Z,477.00
2023-04-27T08:51:17.571Z,487.00
2023-04-27T08:52:18.087Z,474.00
2023-04-27T08:58:27.252Z,500.00
2023-04-27T09:00:46.419Z,500.00
2023-04-27T09:01:56.087Z,500.00
2023-04-27T09:02:45.148Z,500.00
2023-04-27T09:03:45.303Z,500.00
2023-04-27T09:06:06.299Z,500.00
2023-04-27T09:07:05.728Z,500.00
2023-04-27T09:08:08.417Z,500.00
2023-04-27T09:09:04.268Z,500.00
2023-04-27T09:11:45.551Z,500.00
2023-04-27T09:12:40.190Z,500.00
2023-04-27T09:15:24.063Z,500.00
2023-04-27T09:20:06.846Z,500.00
2023-04-27T09:21:09.701Z,500.00
2023-04-27T09:24:29.330Z,500.00
2023-04-27T09:26:45.666Z,500.00
2023-04-27T09:27:46.753Z,500.00
2023-04-27T09:28:44.407Z,500.00
2023-04-27T09:29:44.329Z,500.00
2023-04-27T09:30:43.610Z,500.00
2023-04-27T09:31:44.384Z,500.00
2023-04-27T09:34:03.361Z,500.00
2023-04-27T09:35:04.133Z,500.00
2023-04-27T09:36:04.053Z,500.00
2023-04-27T09:37:02.586Z,500.00
2023-04-27T09:38:03.319Z,500.00
2023-04-27T09:39:02.495Z,507.00
2023-04-27T09:40:02.447Z,501.00
2023-04-27T09:41:03.195Z,500.00
2023-04-27T09:42:02.552Z,520.00
2023-04-27T09:43:02.396Z,512.00
2023-04-27T09:44:03.090Z,508.00
2023-04-27T09:45:03.508Z,494.00
2023-04-27T09:46:03.210Z,512.00
2023-04-27T09:47:02.464Z,500.00
2023-04-27T09:49:24.138Z,500.00
2023-04-27T09:53:00.459Z,500.00
2023-04-27T09:56:23.117Z,500.00
2023-04-27T10:00:46.085Z,500.00
2023-04-27T10:01:45.673Z,500.00
2023-04-27T10:02:53.363Z,500.00
2023-04-27T10:10:42.791Z,500.00
2023-04-27T10:11:42.375Z,500.00
2023-04-27T10:12:43.053Z,500.00
2023-04-27T10:13:42.689Z,500.00
2023-04-27T10:14:43.611Z,500.00
2023-04-27T10:15:42.842Z,500.00
2023-04-27T10:16:44.465Z,500.00
2023-04-27T10:17:42.376Z,500.00
2023-04-27T10:18:42.257Z,500.00
2023-04-27T10:19:42.410Z,500.00
2023-04-27T10:20:42.653Z,500.00
2023-04-27T10:21:43.569Z,449.00
2023-04-27T10:22:44.056Z,481.00
2023-04-27T10:23:42.419Z,500.00
2023-04-27T10:24:42.533Z,500.00
2023-04-27T10:25:42.295Z,500.00
2023-04-27T10:26:42.473Z,499.00
2023-04-27T10:27:42.641Z,491.00
2023-04-27T10:28:45.570Z,500.00
2023-04-27T10:32:20.850Z,500.00
2023-04-27T10:33:20.861Z,500.00
2023-04-27T10:34:22.384Z,500.00
2023-04-27T10:35:20.458Z,500.00
2023-04-27T10:36:21.117Z,500.00
2023-04-27T10:37:20.520Z,502.00
2023-04-27T10:38:20.494Z,500.00
2023-04-27T10:39:21.031Z,512.00
2023-04-27T10:40:20.540Z,507.00
2023-04-27T10:41:20.573Z,515.00
2023-04-27T10:42:20.606Z,504.00
2023-04-27T10:43:20.719Z,508.00
2023-04-27T10:44:20.701Z,516.00
2023-04-27T10:45:20.676Z,508.00
2023-04-27T10:46:20.741Z,498.00
2023-04-27T10:47:20.793Z,530.00
2023-04-27T10:48:20.735Z,529.00
2023-04-27T10:49:20.833Z,533.00
2023-04-27T10:50:20.762Z,555.00
2023-04-27T10:51:21.298Z,576.00
2023-04-27T10:52:20.768Z,600.00
2023-04-27T10:53:20.797Z,614.00
2023-04-27T10:54:21.193Z,627.00
2023-04-27T10:55:20.906Z,638.00
2023-04-27T10:56:21.195Z,665.00
2023-04-27T10:57:21.051Z,719.00
2023-04-27T10:58:21.033Z,733.00
2023-04-27T10:59:21.072Z,758.00
2023-04-27T11:00:21.115Z,780.00
2023-04-27T11:01:21.230Z,811.00
2023-04-27T11:02:21.193Z,805.00
2023-04-27T11:03:21.274Z,818.00
2023-04-27T11:04:21.242Z,817.00
2023-04-27T11:05:21.252Z,852.00
2023-04-27T11:06:21.215Z,885.00
2023-04-27T11:07:21.258Z,911.00
2023-04-27T11:08:21.327Z,934.00
2023-04-27T11:09:21.309Z,944.00
2023-04-27T11:10:21.420Z,956.00
2023-04-27T11:11:21.293Z,972.00
2023-04-27T11:12:21.268Z,997.00
2023-04-27T11:13:21.276Z,976.00
2023-04-27T11:14:21.713Z,942.00
2023-04-27T11:15:21.351Z,981.00
2023-04-27T11:16:21.369Z,1008.00
2023-04-27T11:17:21.773Z,1041.00
2023-04-27T11:18:21.290Z,1048.00
2023-04-27T11:19:21.303Z,1060.00
2023-04-27T11:20:21.477Z,1068.00
2023-04-27T11:21:21.793Z,1074.00
2023-04-27T11:22:21.719Z,1049.00
2023-04-27T11:23:21.294Z,1045.00
2023-04-27T11:24:21.365Z,1056.00
2023-04-27T11:25:21.370Z,1073.00
2023-04-27T11:26:21.512Z,1093.00
2023-04-27T11:27:21.422Z,1097.00
2023-04-27T11:28:21.420Z,1131.00
2023-04-27T11:29:21.448Z,1110.00
2023-04-27T11:30:22.191Z,1100.00
2023-04-27T11:31:21.566Z,1105.00
2023-04-27T11:32:21.629Z,1152.00
2023-04-27T11:33:21.597Z,1160.00
2023-04-27T11:34:22.639Z,1088.00
2023-04-27T11:35:21.812Z,1065.00
2023-04-27T11:36:21.808Z,1027.00
2023-04-27T11:37:21.816Z,1049.00
2023-04-27T11:38:22.092Z,1027.00
2023-04-27T11:39:21.983Z,1051.00
2023-04-27T11:40:24.369Z,1096.00
2023-04-27T11:41:22.319Z,1096.00
2023-04-27T11:42:22.391Z,1105.00
2023-04-27T11:43:22.295Z,1078.00
2023-04-27T11:44:22.331Z,1070.00
2023-04-27T11:45:22.450Z,1035.00
2023-04-27T11:46:22.576Z,1012.00
2023-04-27T11:47:22.601Z,983.00
2023-04-27T11:48:22.510Z,1266.00
2023-04-27T11:49:22.856Z,1442.00
2023-04-27T11:50:22.578Z,1496.00
2023-04-27T11:51:22.613Z,1730.00
2023-04-27T11:52:22.560Z,1899.00
2023-04-27T11:53:22.602Z,1811.00
2023-04-27T11:54:22.638Z,1747.00
2023-04-27T11:55:22.725Z,1696.00
2023-04-27T11:56:22.825Z,1715.00
2023-04-27T11:57:22.838Z,1698.00
2023-04-27T11:58:22.871Z,1694.00
2023-04-27T11:59:23.000Z,1730.00
2023-04-27T12:00:22.972Z,1755.00
2023-04-27T12:01:36.635Z,1785.00
2023-04-27T12:02:24.120Z,1786.00
2023-04-27T12:03:23.115Z,1787.00
2023-04-27T12:04:23.347Z,1790.00
2023-04-27T12:05:23.216Z,1799.00
2023-04-27T12:07:24.039Z,1787.00
2023-04-27T12:08:22.941Z,1791.00
2023-04-27T12:09:22.961Z,1799.00
2023-04-27T12:10:22.925Z,1800.00
2023-04-27T12:11:22.925Z,1812.00
2023-04-27T12:12:23.001Z,1817.00
2023-04-27T12:13:23.092Z,1821.00
2023-04-27T12:14:22.908Z,1826.00
2023-04-27T12:15:22.954Z,1828.00
2023-04-27T12:16:22.963Z,1829.00
2023-04-27T12:17:22.996Z,1826.00
2023-04-27T12:18:22.850Z,1824.00
2023-04-27T12:19:22.916Z,1829.00
2023-04-27T12:20:22.907Z,1825.00
2023-04-27T12:21:22.897Z,1829.00
2023-04-27T12:22:23.010Z,1821.00
2023-04-27T12:23:22.838Z,1834.00
2023-04-27T12:24:22.812Z,1824.00
2023-04-27T12:25:22.811Z,1822.00
2023-04-27T12:26:22.808Z,1826.00
2023-04-27T12:27:22.862Z,1820.00
2023-04-27T12:28:22.794Z,1824.00
2023-04-27T12:29:22.813Z,1821.00
2023-04-27T12:30:22.815Z,1818.00
2023-04-27T12:31:24.128Z,1825.00
2023-04-27T12:32:22.963Z,1830.00
2023-04-27T12:33:22.765Z,1803.00
2023-04-27T12:34:22.749Z,1821.00
2023-04-27T12:35:23.247Z,1802.00
2023-04-27T12:36:22.750Z,1828.00
2023-04-27T12:37:23.883Z,1824.00
2023-04-27T12:38:22.694Z,1825.00
2023-04-27T12:39:22.700Z,1819.00
2023-04-27T12:40:22.699Z,1810.00
2023-04-27T12:41:22.750Z,1825.00
2023-04-27T12:42:23.030Z,1803.00
2023-04-27T12:43:22.698Z,1822.00
2023-04-27T12:44:22.767Z,1818.00
2023-04-27T12:45:22.812Z,1822.00
2023-04-27T12:46:22.821Z,1819.00
2023-04-27T12:47:45.931Z,1811.00
2023-04-27T12:48:23.742Z,1812.00
2023-04-27T12:49:22.660Z,1813.00
2023-04-27T12:50:22.655Z,1792.00
2023-04-27T12:51:22.659Z,1823.00
2023-04-27T12:52:22.727Z,1812.00
2023-04-27T12:53:22.634Z,1823.00
2023-04-27T12:54:22.595Z,1798.00
2023-04-27T12:55:32.956Z,1825.00
2023-04-27T12:56:23.610Z,1826.00
2023-04-27T12:57:22.568Z,1824.00
2023-04-27T12:58:22.598Z,1829.00
2023-04-27T12:59:22.617Z,1809.00
2023-04-27T13:00:22.568Z,1833.00
2023-04-27T13:01:22.720Z,1813.00
2023-04-27T13:02:22.693Z,1801.00
2023-04-27T13:03:22.614Z,1829.00
2023-04-27T13:04:23.020Z,1826.00
2023-04-27T13:05:22.557Z,1819.00
2023-04-27T13:06:22.546Z,1817.00
2023-04-27T13:07:22.534Z,1823.00
2023-04-27T13:08:22.535Z,1825.00
2023-04-27T13:09:22.544Z,1817.00
2023-04-27T13:10:22.510Z,1822.00
2023-04-27T13:11:22.483Z,1825.00
2023-04-27T13:12:22.564Z,1824.00
2023-04-27T13:13:22.448Z,1818.00
2023-04-27T13:14:22.487Z,1808.00
2023-04-27T13:15:22.440Z,1765.00
2023-04-27T13:16:22.515Z,1823.00
2023-04-27T13:17:22.433Z,1828.00
2023-04-27T13:18:22.458Z,1791.00
2023-04-27T13:19:22.400Z,1805.00
2023-04-27T13:20:22.419Z,1812.00
2023-04-27T13:21:22.457Z,1796.00
2023-04-27T13:22:22.408Z,1786.00
2023-04-27T13:23:22.410Z,1766.00
2023-04-27T13:24:22.403Z,1799.00
2023-04-27T13:25:22.429Z,1815.00
2023-04-27T13:26:22.446Z,1800.00
2023-04-27T13:27:22.521Z,1805.00
2023-04-27T13:28:22.487Z,1817.00
2023-04-27T13:29:22.503Z,1776.00
2023-04-27T13:30:22.589Z,1790.00
2023-04-27T13:31:22.652Z,1770.00
2023-04-27T13:32:22.837Z,1803.00